Time;durP1;ratioP1;P1;durP2;ratioP2;P2;SDS_P1;SDS_P2;PMS_P1;PMS_P2;Temp;Humidity;BMP_temperature;BMP_pressure;BME280_temperature;BME280_humidity;BME280_pressure;Samples;Min_cycle;Max_cycle;Signal;HPM_P1;HPM_P2
2022/03/15 00:01:33;;;;;;;9.10;5.70;;;7.00;99.90;;;;;;5039618;28;20477;-83
2022/03/15 00:04:01;;;;;;;8.67;5.60;;;;;;;;;;5039796;28;20451;-83
2022/03/15 00:06:29;;;;;;;8.13;5.67;;;6.90;99.90;;;;;;5038934;28;20481;-83
2022/03/15 00:08:56;;;;;;;10.13;5.90;;;7.10;99.90;;;;;;5041006;28;20461;-83
2022/03/15 00:11:23;;;;;;;11.77;6.27;;;;;;;;;;5034241;28;20457;-82
2022/03/15 00:13:50;;;;;;;8.93;5.60;;;6.90;99.90;;;;;;5039873;28;20460;-84
2022/03/15 00:16:17;;;;;;;8.07;5.63;;;;;;;;;;5040524;28;20479;-83
2022/03/15 00:18:44;;;;;;;9.17;5.83;;;7.20;99.90;;;;;;5041226;28;20450;-83
2022/03/15 00:21:12;;;;;;;6.80;5.60;;;6.80;99.90;;;;;;5040948;28;20564;-83
2022/03/15 00:23:40;;;;;;;8.47;6.10;;;7.00;99.90;;;;;;5040533;28;20553;-83
2022/03/15 00:26:07;;;;;;;7.10;5.23;;;7.10;99.90;;;;;;5038903;28;20544;-83
2022/03/15 00:28:35;;;;;;;6.63;5.93;;;7.10;99.90;;;;;;5030767;28;20528;-83
2022/03/15 00:31:02;;;;;;;9.17;5.10;;;7.00;99.90;;;;;;5054611;28;20457;-83
2022/03/15 00:33:30;;;;;;;9.27;5.53;;;7.00;99.90;;;;;;5039515;28;20529;-84
2022/03/15 00:35:59;;;;;;;10.00;5.43;;;6.80;99.90;;;;;;5040475;28;20541;-84
2022/03/15 00:38:26;;;;;;;8.97;5.90;;;6.60;99.90;;;;;;5040468;28;20445;-83
2022/03/15 00:40:54;;;;;;;7.90;5.50;;;7.00;99.90;;;;;;5039900;28;20992;-83
2022/03/15 00:43:21;;;;;;;10.90;5.40;;;6.80;99.90;;;;;;5033461;28;20459;-84
2022/03/15 00:45:48;;;;;;;8.80;5.37;;;6.80;99.90;;;;;;5036590;28;20996;-83
2022/03/15 00:48:15;;;;;;;9.60;5.30;;;6.70;99.90;;;;;;5040752;28;20489;-83
2022/03/15 00:50:42;;;;;;;8.93;5.93;;;7.30;99.90;;;;;;5035792;28;20455;-83
2022/03/15 00:53:10;;;;;;;7.27;5.57;;;6.70;99.90;;;;;;5039744;28;20487;-82
2022/03/15 00:55:37;;;;;;;8.87;6.00;;;6.70;99.90;;;;;;5039997;28;20488;-83
2022/03/15 00:58:06;;;;;;;7.87;5.70;;;6.60;99.90;;;;;;5027461;28;20468;-83
2022/03/15 01:00:33;;;;;;;8.00;5.27;;;;;;;;;;5038006;28;20527;-84
2022/03/15 01:03:00;;;;;;;8.73;6.00;;;6.70;99.90;;;;;;5036686;28;20452;-80
2022/03/15 01:05:27;;;;;;;9.80;6.60;;;;;;;;;;5039474;28;20495;-83
2022/03/15 01:07:54;;;;;;;7.53;6.53;;;6.50;99.90;;;;;;5039469;28;20457;-83
2022/03/15 01:10:21;;;;;;;11.90;6.90;;;6.50;99.90;;;;;;5039991;28;20459;-83
2022/03/15 01:12:48;;;;;;;10.60;6.00;;;6.40;99.90;;;;;;5038578;28;20858;-82
2022/03/15 01:15:17;;;;;;;8.73;5.43;;;6.50;99.90;;;;;;5039876;28;20472;-83
2022/03/15 01:17:44;;;;;;;11.10;6.27;;;6.70;99.90;;;;;;5039799;28;20495;-83
2022/03/15 01:20:12;;;;;;;8.97;6.10;;;6.20;99.90;;;;;;5039524;28;20466;-83
2022/03/15 01:22:39;;;;;;;11.00;6.70;;;6.30;99.90;;;;;;5038962;28;20455;-83
2022/03/15 01:25:06;;;;;;;10.63;7.03;;;6.40;99.90;;;;;;5038871;28;20508;-84
2022/03/15 01:27:34;;;;;;;11.77;7.37;;;6.40;99.90;;;;;;5039075;28;20464;-83
2022/03/15 01:30:01;;;;;;;10.07;5.87;;;6.10;99.90;;;;;;5037285;28;20466;-84
2022/03/15 01:32:29;;;;;;;10.57;6.67;;;6.50;99.90;;;;;;5040400;28;20451;-84
2022/03/15 01:34:56;;;;;;;9.90;6.53;;;;;;;;;;5038776;28;20472;-84
2022/03/15 01:37:23;;;;;;;11.70;6.20;;;6.50;99.90;;;;;;5039478;28;20451;-82
2022/03/15 01:39:50;;;;;;;9.50;7.10;;;6.20;99.90;;;;;;5039227;28;20456;-82
2022/03/15 01:42:17;;;;;;;10.20;7.20;;;6.10;99.90;;;;;;5038833;28;20487;-83
2022/03/15 01:44:47;;;;;;;6.60;5.20;;;6.20;99.90;;;;;;5039069;28;20472;-83
2022/03/15 01:47:14;;;;;;;9.33;6.90;;;6.50;99.90;;;;;;5038102;28;20515;-82
2022/03/15 01:49:42;;;;;;;15.17;6.83;;;6.60;99.90;;;;;;5038752;28;20506;-82
2022/03/15 01:52:12;;;;;;;8.30;6.13;;;6.60;99.90;;;;;;5038984;28;20528;-83
2022/03/15 01:54:40;;;;;;;11.60;7.57;;;6.20;99.90;;;;;;5037436;28;20486;-82
2022/03/15 01:57:08;;;;;;;8.80;6.63;;;;;;;;;;5039204;28;20460;-83
2022/03/15 01:59:36;;;;;;;8.60;6.63;;;6.50;99.90;;;;;;5038448;28;20540;-85
2022/03/15 02:02:04;;;;;;;9.53;6.23;;;6.60;99.90;;;;;;5038742;28;20498;-83
2022/03/15 02:04:32;;;;;;;8.10;6.30;;;6.40;99.90;;;;;;5037478;28;20463;-83
2022/03/15 02:07:04;;;;;;;8.87;5.73;;;6.50;99.90;;;;;;5038515;28;20471;-83
2022/03/15 02:09:32;;;;;;;9.93;6.10;;;6.40;99.90;;;;;;5019241;28;20593;-83
2022/03/15 02:11:59;;;;;;;10.00;5.40;;;6.30;99.90;;;;;;5020381;28;20452;-82
2022/03/15 02:14:27;;;;;;;10.20;6.77;;;6.60;99.90;;;;;;5018137;28;20523;-83
2022/03/15 02:16:53;;;;;;;8.70;5.80;;;6.40;99.90;;;;;;5032669;28;20524;-82
2022/03/15 02:19:20;;;;;;;12.80;6.30;;;6.40;99.90;;;;;;5037639;28;20456;-82
2022/03/15 02:21:49;;;;;;;9.30;6.57;;;6.40;99.90;;;;;;5038012;28;20996;-82
2022/03/15 02:24:16;;;;;;;15.10;6.73;;;6.40;99.90;;;;;;5035728;28;21004;-82
2022/03/15 02:26:43;;;;;;;13.73;6.80;;;6.40;99.90;;;;;;5038021;28;20477;-82
2022/03/15 02:29:12;;;;;;;8.00;5.67;;;6.40;99.90;;;;;;5038538;28;20466;-81
2022/03/15 02:31:39;;;;;;;8.20;6.50;;;6.40;99.90;;;;;;5038233;28;20459;-82
2022/03/15 02:34:06;;;;;;;13.27;5.87;;;6.30;99.90;;;;;;5037230;28;20539;-83
2022/03/15 02:36:33;;;;;;;8.97;5.43;;;6.40;99.90;;;;;;5020856;28;20568;-83
2022/03/15 02:39:01;;;;;;;8.53;5.33;;;6.40;99.90;;;;;;5020917;28;20466;-82
2022/03/15 02:41:28;;;;;;;10.60;6.20;;;6.40;99.90;;;;;;5041493;28;20517;-83
2022/03/15 02:43:56;;;;;;;9.30;6.60;;;6.40;99.90;;;;;;5041142;28;20897;-83
2022/03/15 02:46:28;;;;;;;9.13;6.30;;;6.30;99.90;;;;;;5042588;28;20472;-83
2022/03/15 02:48:55;;;;;;;8.73;5.60;;;6.40;99.90;;;;;;5042319;28;20451;-82
2022/03/15 02:51:21;;;;;;;8.83;6.37;;;6.40;99.90;;;;;;5040178;28;20450;-83
2022/03/15 02:53:53;;;;;;;11.27;6.03;;;6.40;99.90;;;;;;5041282;28;20527;-83
2022/03/15 02:56:22;;;;;;;8.50;6.07;;;6.40;99.90;;;;;;5042534;28;20483;-84
2022/03/15 02:58:49;;;;;;;9.40;5.50;;;6.40;99.90;;;;;;5042151;28;20448;-83
2022/03/15 03:01:16;;;;;;;9.27;6.10;;;6.40;99.90;;;;;;5042644;28;20563;-83
2022/03/15 03:03:43;;;;;;;9.60;5.83;;;6.40;99.90;;;;;;5041082;28;20524;-83
2022/03/15 03:06:10;;;;;;;9.87;5.60;;;6.50;99.90;;;;;;5042128;28;20836;-83
2022/03/15 03:08:36;;;;;;;10.20;6.17;;;6.50;99.90;;;;;;5040909;28;20488;-83
2022/03/15 03:11:04;;;;;;;9.07;6.70;;;6.50;99.90;;;;;;5041896;28;20454;-83
2022/03/15 03:13:34;;;;;;;9.27;5.87;;;6.50;99.90;;;;;;5041844;28;20584;-83
2022/03/15 03:16:01;;;;;;;10.77;5.90;;;6.60;99.90;;;;;;5042134;28;20492;-83
2022/03/15 03:18:32;;;;;;;9.00;6.37;;;6.60;99.90;;;;;;5042257;28;20827;-83
2022/03/15 03:20:59;;;;;;;7.27;5.70;;;6.60;99.90;;;;;;5042870;28;20459;-83
2022/03/15 03:23:26;;;;;;;8.13;5.03;;;6.60;99.90;;;;;;5048609;28;20510;-82
2022/03/15 03:25:56;;;;;;;7.97;5.60;;;6.60;99.90;;;;;;5042044;28;20488;-82
2022/03/15 03:28:23;;;;;;;9.53;5.33;;;6.60;99.90;;;;;;5049884;28;20460;-81
2022/03/15 03:30:51;;;;;;;8.20;5.43;;;8.20;99.90;;;;;;5049371;28;20472;-83
2022/03/15 03:33:20;;;;;;;9.47;5.63;;;6.80;99.90;;;;;;5047197;28;20675;-82
2022/03/15 03:35:49;;;;;;;12.10;5.60;;;6.70;99.90;;;;;;5050671;28;20477;-82
2022/03/15 03:38:17;;;;;;;8.83;5.27;;;6.50;99.90;;;;;;5048299;28;20467;-83
2022/03/15 03:40:43;;;;;;;10.33;5.43;;;6.70;99.90;;;;;;5051211;28;20463;-83
2022/03/15 03:43:10;;;;;;;7.77;4.87;;;6.60;99.90;;;;;;5054307;28;20518;-81
2022/03/15 03:45:37;;;;;;;6.73;5.00;;;6.70;99.90;;;;;;5056026;28;20481;-83
2022/03/15 03:48:06;;;;;;;7.40;5.10;;;6.70;99.90;;;;;;5054196;28;20520;-82
2022/03/15 03:50:33;;;;;;;7.90;5.13;;;6.70;99.90;;;;;;5054693;28;20448;-83
2022/03/15 03:53:00;;;;;;;8.70;5.27;;;6.70;99.90;;;;;;5049555;28;20487;-80
2022/03/15 03:55:27;;;;;;;10.30;6.13;;;6.80;99.90;;;;;;5041862;28;20535;-83
2022/03/15 03:57:54;;;;;;;11.10;5.00;;;6.70;99.90;;;;;;5041612;28;20462;-84
2022/03/15 04:00:21;;;;;;;6.90;4.87;;;6.80;99.90;;;;;;5040648;28;20457;-83
2022/03/15 04:02:48;;;;;;;9.67;5.00;;;6.80;99.90;;;;;;5036730;28;20484;-83
2022/03/15 04:05:16;;;;;;;8.70;5.17;;;6.80;99.90;;;;;;5042086;28;20488;-83
2022/03/15 04:07:43;;;;;;;9.60;4.93;;;6.80;99.90;;;;;;5043005;28;20480;-84
2022/03/15 04:10:11;;;;;;;7.20;4.83;;;6.80;99.90;;;;;;5042578;28;20905;-83
2022/03/15 04:12:38;;;;;;;7.20;5.80;;;6.80;99.90;;;;;;5042080;28;20528;-84
2022/03/15 04:15:06;;;;;;;8.53;4.87;;;6.80;99.90;;;;;;5047964;28;20483;-83
2022/03/15 04:17:34;;;;;;;8.80;5.90;;;6.80;99.90;;;;;;5043602;28;20440;-83
2022/03/15 04:20:01;;;;;;;6.63;4.90;;;6.90;99.90;;;;;;5043464;28;20458;-83
2022/03/15 04:22:29;;;;;;;9.60;6.67;;;6.90;99.90;;;;;;5051209;28;20555;-83
2022/03/15 04:24:56;;;;;;;6.30;4.70;;;6.90;99.90;;;;;;5038393;28;20484;-83
2022/03/15 04:27:23;;;;;;;7.33;5.70;;;6.80;99.90;;;;;;5054089;28;20504;-82
2022/03/15 04:29:50;;;;;;;7.23;5.00;;;6.90;99.90;;;;;;5053724;28;20453;-82
2022/03/15 04:32:18;;;;;;;7.00;4.90;;;6.80;99.90;;;;;;5054679;28;20495;-84
2022/03/15 04:34:45;;;;;;;9.83;5.40;;;6.80;99.90;;;;;;5053665;28;20552;-84
2022/03/15 04:37:12;;;;;;;10.17;6.10;;;6.80;99.90;;;;;;5054474;28;20524;-83
2022/03/15 04:39:40;;;;;;;8.23;4.93;;;6.90;99.90;;;;;;5053493;28;20454;-83
2022/03/15 04:42:07;;;;;;;8.17;5.13;;;6.80;99.90;;;;;;5054273;28;20476;-83
2022/03/15 04:44:34;;;;;;;7.93;5.10;;;7.00;99.90;;;;;;5052631;28;20456;-83
2022/03/15 04:47:02;;;;;;;6.70;4.60;;;6.90;99.90;;;;;;5052621;28;20445;-80
2022/03/15 04:49:28;;;;;;;8.47;5.40;;;6.90;99.90;;;;;;5051955;28;20468;-83
2022/03/15 04:51:55;;;;;;;11.80;5.57;;;6.90;99.90;;;;;;5053772;28;20509;-83
2022/03/15 04:54:22;;;;;;;8.43;5.70;;;6.90;99.90;;;;;;5050690;28;20512;-81
2022/03/15 04:56:50;;;;;;;7.10;4.90;;;6.90;99.90;;;;;;5051788;28;20491;-80
2022/03/15 04:59:17;;;;;;;10.40;4.77;;;7.00;99.90;;;;;;5052140;28;20495;-81
2022/03/15 05:01:44;;;;;;;7.17;4.63;;;7.00;99.90;;;;;;5050149;28;21215;-82
2022/03/15 05:04:11;;;;;;;10.53;5.30;;;7.00;99.90;;;;;;5049947;28;20898;-78
2022/03/15 05:06:39;;;;;;;13.80;5.47;;;7.00;99.90;;;;;;5032476;28;20477;-79
2022/03/15 05:09:06;;;;;;;7.07;5.13;;;7.00;99.90;;;;;;5047909;28;20482;-81
2022/03/15 05:11:32;;;;;;;10.30;4.83;;;7.10;99.90;;;;;;5051518;28;20573;-82
2022/03/15 05:14:01;;;;;;;9.50;4.93;;;7.00;99.90;;;;;;5048900;28;20453;-80
2022/03/15 05:16:28;;;;;;;8.10;4.87;;;6.90;99.90;;;;;;5051605;28;20476;-82
2022/03/15 05:18:56;;;;;;;8.10;5.77;;;6.90;99.90;;;;;;5052365;28;20482;-80
2022/03/15 05:21:25;;;;;;;5.77;4.70;;;7.00;99.90;;;;;;5044102;28;20469;-79
2022/03/15 05:23:52;;;;;;;10.27;5.40;;;7.00;99.90;;;;;;5044645;28;20477;-80
2022/03/15 05:26:20;;;;;;;6.80;4.50;;;7.00;99.90;;;;;;5053238;28;20579;-81
2022/03/15 05:28:49;;;;;;;11.87;5.33;;;7.00;99.90;;;;;;5051769;28;20436;-78
2022/03/15 05:31:17;;;;;;;7.57;3.97;;;7.00;99.90;;;;;;5032819;28;20449;-79
2022/03/15 05:33:44;;;;;;;10.50;4.73;;;7.00;99.90;;;;;;5039687;28;20460;-82
2022/03/15 05:36:11;;;;;;;6.50;5.10;;;7.00;99.90;;;;;;5050676;28;20485;-82
2022/03/15 05:38:38;;;;;;;10.63;5.30;;;7.00;99.90;;;;;;5049960;28;20451;-80
2022/03/15 05:41:08;;;;;;;7.47;4.90;;;6.80;99.90;;;;;;5051234;28;20551;-81
2022/03/15 05:43:35;;;;;;;10.47;6.40;;;7.30;99.90;;;;;;5049410;28;20481;-80
2022/03/15 05:46:03;;;;;;;11.60;6.80;;;7.00;99.90;;;;;;5036796;28;20481;-82
2022/03/15 05:48:31;;;;;;;12.60;6.60;;;7.30;99.90;;;;;;5031910;28;20520;-82
2022/03/15 05:50:59;;;;;;;11.57;5.70;;;7.00;99.90;;;;;;5040610;28;20453;-81
2022/03/15 05:53:26;;;;;;;8.63;5.37;;;7.10;99.90;;;;;;5041143;28;20449;-82
2022/03/15 05:55:53;;;;;;;7.20;5.50;;;7.00;99.90;;;;;;5037068;28;20481;-81
2022/03/15 05:58:20;;;;;;;12.60;5.60;;;7.00;99.90;;;;;;5039265;28;20488;-82
2022/03/15 06:00:47;;;;;;;8.60;4.97;;;6.90;99.90;;;;;;5039510;28;20480;-82
2022/03/15 06:03:13;;;;;;;10.63;4.87;;;7.00;99.90;;;;;;5025972;28;20524;-83
2022/03/15 06:05:42;;;;;;;6.90;5.17;;;7.00;99.90;;;;;;5024239;28;20559;-82
2022/03/15 06:08:08;;;;;;;8.10;4.40;;;7.00;99.90;;;;;;5041718;28;20457;-82
2022/03/15 06:10:35;;;;;;;13.13;5.70;;;7.00;99.90;;;;;;5039226;28;20453;-78
2022/03/15 06:13:03;;;;;;;9.17;4.87;;;7.70;99.90;;;;;;5035077;28;20874;-78
2022/03/15 06:15:29;;;;;;;9.13;4.97;;;7.10;99.90;;;;;;5031929;28;20858;-79
2022/03/15 06:17:59;;;;;;;9.43;4.20;;;7.20;99.90;;;;;;5030782;28;21063;-77
2022/03/15 06:20:26;;;;;;;7.17;4.10;;;7.20;99.90;;;;;;5032640;28;20987;-77
2022/03/15 06:22:55;;;;;;;7.80;4.13;;;7.20;99.90;;;;;;5033279;28;20488;-79
2022/03/15 06:25:22;;;;;;;7.47;4.10;;;7.30;99.90;;;;;;5032573;28;20544;-78
2022/03/15 06:27:49;;;;;;;9.50;5.70;;;7.40;99.90;;;;;;5033823;28;20453;-78
2022/03/15 06:30:16;;;;;;;7.27;4.20;;;7.40;99.90;;;;;;5032461;28;20479;-79
2022/03/15 06:32:44;;;;;;;7.40;4.00;;;7.40;99.90;;;;;;5033256;28;20444;-79
2022/03/15 06:35:12;;;;;;;6.60;4.07;;;7.50;99.90;;;;;;5022961;28;20481;-76
2022/03/15 06:37:42;;;;;;;10.27;4.47;;;7.60;99.90;;;;;;5013484;28;20488;-79
2022/03/15 06:40:12;;;;;;;6.77;3.63;;;7.70;99.90;;;;;;5026025;28;20511;-79
2022/03/15 06:42:39;;;;;;;7.60;4.23;;;7.70;99.90;;;;;;5032980;28;20996;-78
2022/03/15 06:45:07;;;;;;;7.90;6.20;;;7.80;99.90;;;;;;5032737;28;20480;-77
2022/03/15 06:47:34;;;;;;;5.27;3.20;;;7.90;99.90;;;;;;5033465;28;20511;-78
2022/03/15 06:50:01;;;;;;;6.07;3.67;;;7.90;99.90;;;;;;5033729;28;20464;-79
2022/03/15 06:52:28;;;;;;;4.73;3.53;;;8.00;99.90;;;;;;5035253;28;20465;-81
2022/03/15 06:54:55;;;;;;;8.90;4.10;;;8.10;99.90;;;;;;5035209;28;20475;-80
2022/03/15 06:57:23;;;;;;;7.90;4.00;;;8.10;99.90;;;;;;5036840;28;20452;-79
2022/03/15 06:59:50;;;;;;;7.03;4.30;;;8.20;99.90;;;;;;5036112;28;20463;-80
2022/03/15 07:02:17;;;;;;;6.10;3.40;;;8.30;99.90;;;;;;5034237;28;20485;-81
2022/03/15 07:04:43;;;;;;;9.23;4.40;;;8.40;99.90;;;;;;5035816;28;20474;-81
2022/03/15 07:07:10;;;;;;;8.03;4.23;;;8.50;99.90;;;;;;5031799;28;20443;-79
2022/03/15 07:09:37;;;;;;;7.27;4.60;;;8.60;99.90;;;;;;5029882;28;20901;-80
2022/03/15 07:12:06;;;;;;;13.67;4.77;;;8.60;99.90;;;;;;5025520;28;20458;-79
2022/03/15 07:14:35;;;;;;;6.60;3.90;;;8.70;99.90;;;;;;5023743;28;20456;-79
2022/03/15 07:17:01;;;;;;;8.10;3.40;;;8.80;99.90;;;;;;5021215;28;20456;-79
2022/03/15 07:19:29;;;;;;;7.57;4.20;;;8.90;99.90;;;;;;5024979;28;20446;-80
2022/03/15 07:21:55;;;;;;;8.90;3.67;;;9.00;99.90;;;;;;5023872;28;20463;-80
2022/03/15 07:24:22;;;;;;;8.10;3.67;;;9.00;99.90;;;;;;5024224;28;20485;-80
2022/03/15 07:26:49;;;;;;;6.30;3.67;;;9.10;99.90;;;;;;5027751;28;20446;-78
2022/03/15 07:29:16;;;;;;;12.40;4.47;;;9.20;99.90;;;;;;5029687;28;20457;-80
2022/03/15 07:31:45;;;;;;;7.73;4.27;;;9.30;99.90;;;;;;5027572;28;20446;-80
2022/03/15 07:34:13;;;;;;;7.20;3.87;;;9.40;99.90;;;;;;5027169;28;21065;-80
2022/03/15 07:36:39;;;;;;;6.93;3.40;;;9.50;99.90;;;;;;5028899;28;20528;-78
2022/03/15 07:39:09;;;;;;;7.90;4.10;;;9.50;99.90;;;;;;5029951;28;20439;-80
2022/03/15 07:41:40;;;;;;;6.00;3.57;;;9.50;99.90;;;;;;5027457;28;20458;-78
2022/03/15 07:44:08;;;;;;;6.00;3.60;;;9.40;99.90;;;;;;5028804;28;20495;-81
2022/03/15 07:46:36;;;;;;;7.10;3.40;;;9.60;99.90;;;;;;5033444;28;20473;-78
2022/03/15 07:49:05;;;;;;;6.60;2.80;;;9.70;99.90;;;;;;5029609;28;20462;-80
2022/03/15 07:51:34;;;;;;;8.77;3.23;;;9.70;99.90;;;;;;5030717;28;20459;-77
2022/03/15 07:54:01;;;;;;;8.73;3.90;;;9.70;99.90;;;;;;5026716;28;20481;-79
2022/03/15 07:56:30;;;;;;;5.63;3.17;;;9.90;99.90;;;;;;5028805;28;20481;-78
2022/03/15 07:58:58;;;;;;;6.80;3.40;;;9.90;99.90;;;;;;5028544;28;20479;-79
2022/03/15 08:01:25;;;;;;;6.37;3.70;;;9.90;99.90;;;;;;5027618;28;20596;-81
2022/03/15 08:03:53;;;;;;;6.80;3.77;;;10.00;99.90;;;;;;5026119;28;20478;-78
2022/03/15 08:06:24;;;;;;;10.37;3.57;;;10.00;99.90;;;;;;5025044;28;20482;-78
2022/03/15 08:08:53;;;;;;;7.40;3.13;;;10.10;99.90;;;;;;5027833;28;20444;-78
2022/03/15 08:11:20;;;;;;;5.80;2.80;;;10.20;99.90;;;;;;5031728;28;20951;-78
2022/03/15 08:13:47;;;;;;;6.37;2.90;;;10.20;99.90;;;;;;5035512;28;20460;-77
2022/03/15 08:16:14;;;;;;;8.47;2.97;;;10.30;99.90;;;;;;5032146;28;20483;-79
2022/03/15 08:18:40;;;;;;;6.70;3.40;;;10.40;99.90;;;;;;5020764;28;20447;-79
2022/03/15 08:21:08;;;;;;;13.50;3.40;;;10.50;99.90;;;;;;5028492;28;20495;-78
2022/03/15 08:23:36;;;;;;;6.13;2.40;;;10.50;99.90;;;;;;5055991;28;20509;-78
2022/03/15 08:26:03;;;;;;;5.83;2.40;;;10.60;99.90;;;;;;5050674;28;20554;-78
2022/03/15 08:28:29;;;;;;;6.63;2.40;;;10.70;99.90;;;;;;5028556;28;20955;-80
2022/03/15 08:30:58;;;;;;;5.67;3.00;;;10.80;99.90;;;;;;5039635;28;20460;-80
2022/03/15 08:33:25;;;;;;;6.77;3.17;;;10.90;99.90;;;;;;5040059;28;20536;-79
2022/03/15 08:35:52;;;;;;;5.27;2.40;;;10.90;99.90;;;;;;5039269;28;20487;-79
2022/03/15 08:38:19;;;;;;;4.60;2.83;;;11.00;99.90;;;;;;5038031;28;20817;-81
2022/03/15 08:40:49;;;;;;;8.97;3.53;;;11.10;99.90;;;;;;5039278;28;20555;-79
2022/03/15 08:43:16;;;;;;;6.87;3.70;;;11.00;99.90;;;;;;5037175;28;20850;-77
2022/03/15 08:45:42;;;;;;;10.50;4.07;;;10.90;99.90;;;;;;5038603;28;20570;-78
2022/03/15 08:48:09;;;;;;;8.57;5.10;;;10.80;99.90;;;;;;5036193;28;20447;-79
2022/03/15 08:50:36;;;;;;;10.47;4.83;;;10.80;99.90;;;;;;5037699;28;20556;-78
2022/03/15 08:53:03;;;;;;;8.47;5.07;;;10.80;99.90;;;;;;5037119;28;20456;-78
2022/03/15 08:55:30;;;;;;;9.00;4.90;;;10.90;99.90;;;;;;5037954;28;20488;-78
2022/03/15 08:57:58;;;;;;;11.47;4.57;;;10.80;99.90;;;;;;5033456;28;20499;-78
2022/03/15 09:00:25;;;;;;;6.17;3.87;;;10.90;99.90;;;;;;5033208;28;20483;-79
2022/03/15 09:02:52;;;;;;;7.40;4.30;;;10.90;99.90;;;;;;5031869;28;20574;-78
2022/03/15 09:05:19;;;;;;;5.50;3.77;;;10.90;99.90;;;;;;5035798;28;20490;-78
2022/03/15 09:07:49;;;;;;;6.30;3.40;;;10.90;99.90;;;;;;5038072;28;20926;-77
2022/03/15 09:10:16;;;;;;;9.37;4.30;;;10.80;99.90;;;;;;5035640;28;20454;-79
2022/03/15 09:12:43;;;;;;;7.87;3.80;;;10.80;99.90;;;;;;5031228;28;20457;-79
2022/03/15 09:15:12;;;;;;;10.53;3.57;;;11.00;99.90;;;;;;5035865;28;20557;-78
2022/03/15 09:17:38;;;;;;;9.53;4.57;;;11.10;99.90;;;;;;5035534;28;20502;-78
2022/03/15 09:20:07;;;;;;;9.53;4.87;;;11.10;99.90;;;;;;5036979;28;20974;-79
2022/03/15 09:22:35;;;;;;;11.37;4.40;;;10.90;99.90;;;;;;5023427;28;20555;-79
2022/03/15 09:25:02;;;;;;;10.93;4.27;;;10.80;99.90;;;;;;5035566;28;20595;-79
2022/03/15 09:27:28;;;;;;;9.87;4.60;;;10.90;99.90;;;;;;5037009;28;20457;-81
2022/03/15 09:29:56;;;;;;;9.80;4.27;;;10.90;99.90;;;;;;5037533;28;20464;-79
2022/03/15 09:32:24;;;;;;;9.53;3.80;;;10.90;99.90;;;;;;5036571;28;20470;-80
2022/03/15 09:34:51;;;;;;;8.50;5.47;;;10.80;99.90;;;;;;5027613;28;20476;-81
2022/03/15 09:37:19;;;;;;;13.77;4.63;;;10.90;99.90;;;;;;5031926;28;20460;-81
2022/03/15 09:39:46;;;;;;;7.23;4.07;;;10.90;99.90;;;;;;5036388;28;20518;-80
2022/03/15 09:42:13;;;;;;;9.20;4.37;;;11.10;99.90;;;;;;5036500;28;20484;-80
2022/03/15 09:44:41;;;;;;;8.57;3.50;;;11.20;99.90;;;;;;5035048;28;20489;-80
2022/03/15 09:47:09;;;;;;;9.03;3.60;;;11.40;99.90;;;;;;5036953;28;20453;-80
2022/03/15 09:49:38;;;;;;;7.37;3.97;;;11.40;99.90;;;;;;5032578;28;20459;-80
2022/03/15 09:52:07;;;;;;;6.70;3.90;;;11.50;99.90;;;;;;5033393;28;20837;-79
2022/03/15 09:54:35;;;;;;;5.27;3.73;;;11.60;99.90;;;;;;5026475;28;20459;-78
2022/03/15 09:57:04;;;;;;;4.97;3.10;;;11.70;99.90;;;;;;5035790;28;20452;-81
2022/03/15 09:59:31;;;;;;;8.07;3.50;;;11.70;99.90;;;;;;5034499;28;20483;-80
2022/03/15 10:01:59;;;;;;;7.20;4.07;;;11.70;99.90;;;;;;5035763;28;20464;-78
2022/03/15 10:04:27;;;;;;;8.53;4.03;;;11.70;99.90;;;;;;5035131;28;20488;-77
2022/03/15 10:06:56;;;;;;;11.30;4.80;;;11.70;99.90;;;;;;5036079;28;20465;-81
2022/03/15 10:09:24;;;;;;;11.63;3.90;;;11.90;99.90;;;;;;5025143;28;20535;-78
2022/03/15 10:11:52;;;;;;;10.03;3.83;;;11.90;99.90;;;;;;5026524;28;20457;-79
2022/03/15 10:14:19;;;;;;;9.20;4.23;;;11.90;99.90;;;;;;5035615;28;20461;-81
2022/03/15 10:16:50;;;;;;;8.10;4.77;;;11.90;99.90;;;;;;5035240;28;20499;-78
2022/03/15 10:19:16;;;;;;;11.67;4.10;;;11.90;99.90;;;;;;5037598;28;20520;-80
2022/03/15 10:21:47;;;;;;;8.23;4.50;;;11.90;99.90;;;;;;5035945;28;20480;-79
2022/03/15 10:24:18;;;;;;;5.30;4.00;;;12.00;99.90;;;;;;5034601;28;20848;-79
2022/03/15 10:26:46;;;;;;;6.77;3.57;;;12.10;99.90;;;;;;5033893;28;20532;-81
2022/03/15 10:29:14;;;;;;;7.83;3.80;;;12.20;99.90;;;;;;5035943;28;20460;-80
2022/03/15 10:31:42;;;;;;;8.23;4.43;;;12.30;99.90;;;;;;5029439;28;20844;-80
2022/03/15 10:34:09;;;;;;;12.57;4.13;;;12.50;99.90;;;;;;5026090;28;20478;-80
2022/03/15 10:36:38;;;;;;;7.50;3.67;;;12.70;99.90;;;;;;5025283;28;20840;-79
2022/03/15 10:39:06;;;;;;;8.23;4.10;;;12.80;99.90;;;;;;5026715;28;20838;-80
2022/03/15 10:41:45;;;;;;;6.20;4.00;;;12.80;99.90;;;;;;5026857;28;20455;-80
2022/03/15 10:44:20;;;;;;;7.57;4.07;;;12.80;99.90;;;;;;5026134;28;20510;-81
2022/03/15 10:47:00;;;;;;;8.73;4.00;;;12.80;99.90;;;;;;5029933;28;20455;-79
2022/03/15 10:49:28;;;;;;;13.40;4.10;;;12.90;99.90;;;;;;5035557;28;20449;-80
2022/03/15 10:51:55;;;;;;;7.80;3.43;;;12.90;99.90;;;;;;5023994;28;20520;-80
2022/03/15 10:54:24;;;;;;;6.80;3.53;;;12.70;99.90;;;;;;5028437;28;20453;-78
2022/03/15 10:56:57;;;;;;;7.33;3.30;;;12.70;99.90;;;;;;5036874;28;20665;-79
2022/03/15 10:59:24;;;;;;;9.77;4.27;;;12.80;99.90;;;;;;5034908;28;20462;-81
2022/03/15 11:01:52;;;;;;;8.73;3.93;;;12.90;99.90;;;;;;5029074;28;20460;-81
2022/03/15 11:04:20;;;;;;;7.07;3.40;;;12.70;99.90;;;;;;5035143;28;20479;-80
2022/03/15 11:06:49;;;;;;;7.23;3.20;;;12.80;99.90;;;;;;5039993;28;20548;-79
2022/03/15 11:09:21;;;;;;;6.57;3.17;;;12.80;99.90;;;;;;5039653;28;20457;-80
2022/03/15 11:11:53;;;;;;;5.40;3.40;;;12.80;99.90;;;;;;5040440;28;20457;-79
2022/03/15 11:14:32;;;;;;;8.37;3.50;;;12.90;99.90;;;;;;5037107;28;20536;-80
2022/03/15 11:16:59;;;;;;;6.70;3.00;;;12.90;99.90;;;;;;5019884;28;20946;-80
2022/03/15 11:19:29;;;;;;;7.20;4.10;;;13.20;99.90;;;;;;5038475;28;20489;-79
2022/03/15 11:21:59;;;;;;;6.13;3.07;;;13.30;99.90;;;;;;5039794;28;20814;-79
2022/03/15 11:24:31;;;;;;;8.00;2.83;;;13.60;99.90;;;;;;5035536;28;20864;-79
2022/03/15 11:27:02;;;;;;;6.47;4.10;;;13.60;99.90;;;;;;5024383;28;20450;-79
2022/03/15 11:29:32;;;;;;;11.20;2.80;;;13.40;99.90;;;;;;5027394;28;20549;-77
2022/03/15 11:32:06;;;;;;;5.87;2.90;;;13.70;99.90;;;;;;5030421;28;20467;-79
2022/03/15 11:34:35;;;;;;;6.53;3.50;;;13.90;99.90;;;;;;5026316;28;20461;-79
2022/03/15 11:37:07;;;;;;;4.97;3.33;;;13.90;99.90;;;;;;5027789;28;20458;-80
2022/03/15 11:39:34;;;;;;;7.17;3.60;;;14.10;99.90;;;;;;5029825;28;20945;-80
2022/03/15 11:42:02;;;;;;;7.73;3.77;;;14.20;99.90;;;;;;5033040;28;20478;-78
2022/03/15 11:44:35;;;;;;;7.83;3.60;;;14.20;99.90;;;;;;5028823;28;20498;-80
2022/03/15 11:47:14;;;;;;;6.00;3.43;;;14.10;99.90;;;;;;5034711;28;20459;-80
2022/03/15 11:49:48;;;;;;;8.50;3.53;;;14.20;99.90;;;;;;5033453;28;20455;-80
2022/03/15 11:52:27;;;;;;;6.90;3.13;;;14.00;99.90;;;;;;5028143;28;20980;-78
2022/03/15 11:55:02;;;;;;;9.50;3.93;;;14.30;99.90;;;;;;5033010;28;20465;-79
2022/03/15 11:57:32;;;;;;;5.13;3.00;;;14.50;99.90;;;;;;5031472;28;20527;-80
2022/03/15 12:00:00;;;;;;;11.17;4.00;;;14.30;99.90;;;;;;5028855;28;20456;-80
2022/03/15 12:02:29;;;;;;;7.60;3.13;;;14.50;99.90;;;;;;5031977;28;20468;-80
2022/03/15 12:04:57;;;;;;;14.97;3.70;;;14.50;99.90;;;;;;5029836;28;20573;-79
2022/03/15 12:07:45;;;;;;;5.93;2.90;;;14.70;99.90;;;;;;5037290;28;20462;-79
2022/03/15 12:10:13;;;;;;;5.77;2.70;;;14.70;99.90;;;;;;5029323;28;20540;-79
2022/03/15 12:12:42;;;;;;;7.40;2.80;;;14.80;99.90;;;;;;5037633;28;20462;-81
2022/03/15 12:15:17;;;;;;;4.93;2.33;;;14.70;99.90;;;;;;5037217;28;20505;-80
2022/03/15 12:17:44;;;;;;;5.00;2.30;;;14.70;99.90;;;;;;5029461;28;20449;-80
2022/03/15 12:20:14;;;;;;;4.13;2.53;;;14.40;99.90;;;;;;5028346;28;20518;-78
2022/03/15 12:22:43;;;;;;;3.97;2.60;;;14.50;99.90;;;;;;5029057;28;20452;-80
2022/03/15 12:25:14;;;;;;;5.50;3.13;;;14.50;99.90;;;;;;5031303;28;20506;-80
2022/03/15 12:27:43;;;;;;;5.20;2.77;;;14.50;99.90;;;;;;5026717;28;20469;-79
2022/03/15 12:30:12;;;;;;;6.63;2.30;;;14.30;99.90;;;;;;5028248;28;20487;-79
2022/03/15 12:32:51;;;;;;;7.53;2.70;;;14.20;99.90;;;;;;5027149;28;20557;-80
2022/03/15 12:35:18;;;;;;;5.30;1.90;;;14.30;99.90;;;;;;5030711;28;20484;-79
2022/03/15 12:37:49;;;;;;;4.77;2.00;;;14.40;99.90;;;;;;5021788;28;20930;-80
2022/03/15 12:40:15;;;;;;;4.10;2.20;;;14.40;99.90;;;;;;5033906;28;20456;-79
2022/03/15 12:42:53;;;;;;;5.00;1.87;;;14.50;99.90;;;;;;5024117;28;20466;-82
2022/03/15 12:45:23;;;;;;;4.23;2.33;;;14.50;99.90;;;;;;5030814;28;20495;-79
2022/03/15 12:47:51;;;;;;;4.67;2.20;;;14.20;99.90;;;;;;5025882;28;20452;-80
2022/03/15 12:50:21;;;;;;;5.60;1.97;;;14.30;99.90;;;;;;5023912;28;20465;-82
2022/03/15 12:52:50;;;;;;;5.20;2.10;;;14.50;99.90;;;;;;5021603;28;20536;-80
2022/03/15 12:55:19;;;;;;;5.77;2.60;;;14.50;99.90;;;;;;5034594;28;20564;-80
2022/03/15 12:57:48;;;;;;;3.23;1.90;;;14.50;99.90;;;;;;5035496;28;20898;-79